Time;durP1;ratioP1;P1;durP2;ratioP2;P2;SDS_P1;SDS_P2;PMS_P1;PMS_P2;Temp;Humidity;BMP_temperature;BMP_pressure;BME280_temperature;BME280_humidity;BME280_pressure;Samples;Min_cycle;Max_cycle;Signal;HPM_P1;HPM_P2
2022/04/18 00:01:31;;;;;;;9.78;3.22;;;;;;;-1.54;92.82;99452.98;1669189;83;21048;-70
2022/04/18 00:04:03;;;;;;;6.85;3.30;;;;;;;-1.51;93.39;99449.28;1681887;83;21049;-69
2022/04/18 00:06:35;;;;;;;9.03;3.80;;;;;;;-1.46;93.77;99448.57;1705010;83;20969;-71
2022/04/18 00:09:04;;;;;;;8.38;3.00;;;;;;;-1.46;93.50;99443.19;1694597;83;21013;-70
2022/04/18 00:11:42;;;;;;;8.93;3.25;;;;;;;-1.50;93.49;99442.84;1682149;83;20894;-73
2022/04/18 00:14:14;;;;;;;5.87;3.12;;;;;;;-1.49;94.42;99438.28;1672099;83;21020;-73
2022/04/18 00:16:47;;;;;;;6.25;2.80;;;;;;;-1.48;94.33;99443.95;1687904;83;20930;-73
2022/04/18 00:19:21;;;;;;;7.35;2.77;;;;;;;-1.52;93.98;99435.53;1692159;83;20958;-73
2022/04/18 00:21:50;;;;;;;6.25;2.85;;;;;;;-1.55;94.53;99435.20;1691982;83;21487;-74
2022/04/18 00:24:21;;;;;;;6.58;2.70;;;;;;;-1.56;94.68;99436.25;1693063;83;21003;-72
2022/04/18 00:26:54;;;;;;;6.90;2.42;;;;;;;-1.61;94.35;99429.42;1685096;83;21536;-72
2022/04/18 00:29:27;;;;;;;6.78;3.25;;;;;;;-1.70;94.05;99424.94;1704717;83;21491;-72
2022/04/18 00:31:57;;;;;;;7.33;3.33;;;;;;;-1.74;95.18;99422.47;1698493;83;20945;-73
2022/04/18 00:34:32;;;;;;;6.30;3.33;;;;;;;-1.78;95.10;99424.00;1686247;83;21441;-73
2022/04/18 00:36:57;;;;;;;5.55;2.77;;;;;;;-1.86;94.87;99414.42;1700412;83;21191;-73
2022/04/18 00:39:28;;;;;;;4.05;2.60;;;;;;;-1.94;94.69;99414.80;1680814;83;20970;-73
2022/04/18 00:42:02;;;;;;;6.90;2.98;;;;;;;-1.98;95.31;99416.85;1699989;83;21437;-73
2022/04/18 00:44:35;;;;;;;7.40;2.67;;;;;;;-2.05;95.44;99413.77;1675907;83;20929;-73
2022/04/18 00:47:07;;;;;;;4.87;2.47;;;;;;;-2.10;95.57;99416.34;1688510;83;21572;-72
2022/04/18 00:49:38;;;;;;;5.55;2.40;;;;;;;-2.14;95.80;99419.21;1697296;83;21592;-73
2022/04/18 00:52:11;;;;;;;5.40;2.00;;;;;;;-2.14;96.31;99415.70;1676955;83;21005;-72
2022/04/18 00:54:41;;;;;;;3.90;1.65;;;;;;;-2.19;96.19;99405.66;1713280;83;21437;-74
2022/04/18 00:57:10;;;;;;;5.03;2.40;;;;;;;-2.21;96.34;99414.48;1687078;83;21507;-74
2022/04/18 00:59:44;;;;;;;4.83;2.05;;;;;;;-2.20;97.31;99404.02;1684574;83;20902;-73
2022/04/18 01:02:17;;;;;;;5.20;2.12;;;;;;;-2.21;97.27;99399.70;1674156;83;21277;-73
2022/04/18 01:04:51;;;;;;;3.98;1.90;;;;;;;-2.22;97.21;99399.93;1688639;83;20933;-73
2022/04/18 01:07:18;;;;;;;4.80;2.13;;;;;;;-2.23;97.34;99399.11;1693802;83;21082;-73
2022/04/18 01:09:50;;;;;;;4.62;1.80;;;;;;;-2.22;97.66;99394.55;1689735;84;21674;-71
2022/04/18 01:12:19;;;;;;;2.83;1.90;;;;;;;-2.20;97.73;99397.30;1695529;83;37032;-72
2022/04/18 01:15:02;;;;;;;;;;;;;;;-2.20;97.85;99385.20;1694147;83;20902;-72
2022/04/18 01:17:41;;;;;;;5.80;2.00;;;;;;;-2.17;98.33;99387.41;1662698;84;20424;-71
2022/04/18 01:20:20;;;;;;;4.03;2.40;;;;;;;-2.14;98.59;99378.87;1690769;83;20949;-71
2022/04/18 01:23:05;;;;;;;3.72;1.92;;;;;;;-2.15;98.49;99376.42;1705141;83;21431;-71
2022/04/18 01:31:24;;;;;;;3.62;1.65;;;;;;;-2.06;99.28;99361.55;1713082;83;21540;-71
2022/04/18 01:33:56;;;;;;;5.28;1.98;;;;;;;-2.03;99.31;99358.38;1688762;83;20887;-71
2022/04/18 01:36:29;;;;;;;4.70;2.08;;;;;;;-2.00;99.72;99360.06;1706192;83;21017;-71
2022/04/18 01:39:02;;;;;;;3.27;1.72;;;;;;;-1.99;99.58;99359.54;1685685;83;20854;-72
2022/04/18 01:41:33;;;;;;;3.30;1.70;;;;;;;-1.97;99.52;99364.16;1695894;83;21135;-71
2022/04/18 01:44:05;;;;;;;4.03;2.02;;;;;;;-1.97;99.45;99364.68;1682419;83;20950;-70
2022/04/18 01:46:38;;;;;;;4.58;2.00;;;;;;;-1.96;99.73;99360.94;1695141;83;20949;-70
2022/04/18 01:49:13;;;;;;;2.75;1.80;;;;;;;-1.97;99.67;99360.12;1680772;83;20954;-70
2022/04/18 01:51:43;;;;;;;3.85;2.02;;;;;;;-1.98;99.66;99362.52;1672230;83;21465;-70
2022/04/18 01:54:15;;;;;;;2.50;1.60;;;;;;;-1.96;99.97;99356.38;1703944;83;21262;-70
2022/04/18 01:56:47;;;;;;;4.45;1.75;;;;;;;-1.91;100.00;99353.78;1691390;83;21556;-71
2022/04/18 01:59:13;;;;;;;3.20;1.70;;;;;;;-1.87;100.00;99352.25;1696223;83;20998;-71
2022/04/18 02:01:44;;;;;;;3.95;2.37;;;;;;;-1.82;100.00;99356.91;1669841;84;21518;-71
2022/04/18 02:04:17;;;;;;;5.00;1.85;;;;;;;-1.80;100.00;99353.45;1699154;83;20914;-71
2022/04/18 02:06:48;;;;;;;3.33;1.90;;;;;;;-1.80;100.00;99356.14;1687488;83;21181;-71
2022/04/18 02:09:16;;;;;;;4.42;1.77;;;;;;;-1.79;100.00;99355.09;1678796;83;21139;-71
2022/04/18 02:11:44;;;;;;;2.22;1.60;;;;;;;-1.81;99.89;99350.47;1704231;83;21028;-71
2022/04/18 02:14:11;;;;;;;7.75;2.60;;;;;;;-1.81;100.00;99347.78;1692491;83;20962;-71
2022/04/18 02:16:43;;;;;;;4.15;2.20;;;;;;;-1.78;100.00;99343.27;1691197;83;21496;-71
2022/04/18 02:19:14;;;;;;;3.72;1.98;;;;;;;-1.75;100.00;99343.61;1686459;83;21023;-71
2022/04/18 02:21:44;;;;;;;3.33;2.15;;;;;;;-1.71;100.00;99338.00;1713523;83;20939;-74
2022/04/18 02:24:17;;;;;;;6.60;2.17;;;;;;;-1.72;100.00;99338.23;1685470;81;21549;-73
2022/04/18 02:26:44;;;;;;;6.60;2.50;;;;;;;-1.74;100.00;99335.00;1706422;82;21070;-73
2022/04/18 02:29:18;;;;;;;4.30;2.72;;;;;;;-1.77;99.78;99338.99;1743539;81;20942;-73
2022/04/18 02:34:36;;;;;;;4.90;2.33;;;;;;;-1.80;100.00;99340.81;1734268;81;20117;-71
2022/04/18 02:37:09;;;;;;;3.62;2.08;;;;;;;-1.79;100.00;99334.91;1734751;81;20979;-71
2022/04/18 02:39:44;;;;;;;2.95;1.60;;;;;;;-1.77;100.00;99338.17;1726616;81;20930;-71
2022/04/18 02:42:14;;;;;;;4.05;2.05;;;;;;;-1.75;100.00;99329.33;1711155;81;21569;-71
2022/04/18 02:44:51;;;;;;;6.10;2.30;;;;;;;-1.74;100.00;99324.23;1700478;81;21793;-71
2022/04/18 02:47:25;;;;;;;3.08;1.85;;;;;;;-1.72;100.00;99323.44;1705890;83;20982;-71
2022/04/18 02:49:56;;;;;;;4.53;2.22;;;;;;;-1.75;100.00;99315.87;1678992;83;20945;-71
2022/04/18 02:52:28;;;;;;;3.72;1.95;;;;;;;-1.81;99.94;99320.88;1693798;83;20952;-71
2022/04/18 02:55:00;;;;;;;3.00;1.75;;;;;;;-1.79;100.00;99321.45;1689915;83;21020;-71
2022/04/18 02:57:37;;;;;;;3.37;1.62;;;;;;;-1.83;99.93;99321.12;1675310;83;20925;-69
2022/04/18 03:00:11;;;;;;;2.55;1.82;;;;;;;-1.85;99.83;99323.76;1670283;83;21572;-71
2022/04/18 03:02:45;;;;;;;3.35;1.95;;;;;;;-1.90;99.62;99315.59;1717107;81;20999;-71
2022/04/18 03:05:14;;;;;;;5.08;2.62;;;;;;;-1.93;99.81;99321.45;1703559;82;21591;-71
2022/04/18 03:07:43;;;;;;;5.15;2.62;;;;;;;-1.95;99.94;99322.22;1754968;81;20876;-71
2022/04/18 03:10:15;;;;;;;3.17;1.77;;;;;;;-1.97;99.93;99314.91;1734149;80;20965;-71
2022/04/18 03:12:43;;;;;;;5.05;2.00;;;;;;;-2.00;100.00;99315.68;1733252;81;21477;-71
2022/04/18 03:15:14;;;;;;;4.75;1.87;;;;;;;-2.01;100.00;99311.88;1707804;81;20952;-71
2022/04/18 03:17:51;;;;;;;3.02;1.92;;;;;;;-2.02;100.00;99307.03;1688457;83;20941;-71
2022/04/18 03:20:22;;;;;;;5.10;2.40;;;;;;;-2.03;100.00;99304.58;1716621;82;20972;-71
2022/04/18 03:22:49;;;;;;;4.12;2.15;;;;;;;-2.01;100.00;99302.47;1748159;81;21155;-71
2022/04/18 03:25:20;;;;;;;4.72;2.27;;;;;;;-1.92;100.00;99297.00;1747010;81;21502;-71
2022/04/18 03:27:59;;;;;;;7.55;2.37;;;;;;;-1.82;100.00;99292.34;1719714;81;21344;-71
2022/04/18 03:30:33;;;;;;;3.00;1.90;;;;;;;-1.77;100.00;99294.59;1745099;80;21309;-71
2022/04/18 03:33:09;;;;;;;4.47;2.50;;;;;;;-1.74;100.00;99294.11;1738770;81;20980;-70
2022/04/18 03:39:50;;;;;;;4.75;2.77;;;;;;;-1.73;100.00;99290.86;1730197;82;21135;-71
2022/04/18 03:41:01;;;;;;;8.15;3.92;;;;;;;-1.70;100.00;99293.88;1748792;81;21516;-70
2022/04/18 03:43:31;;;;;;;8.53;2.90;;;;;;;-1.68;100.00;99287.73;1745834;81;21460;-70
2022/04/18 03:46:04;;;;;;;8.75;3.60;;;;;;;-1.64;100.00;99281.86;1745999;80;20953;-70
2022/04/18 03:48:37;;;;;;;5.30;2.72;;;;;;;-1.61;100.00;99278.16;1701612;81;20975;-71
2022/04/18 03:51:10;;;;;;;6.33;3.30;;;;;;;-1.60;100.00;99279.78;1706930;82;21510;-72
2022/04/18 03:53:43;;;;;;;7.17;2.60;;;;;;;-1.59;100.00;99274.69;1698874;82;20971;-72
2022/04/18 03:56:18;;;;;;;5.12;2.52;;;;;;;-1.58;100.00;99273.62;1736614;82;20983;-72
2022/04/18 03:59:07;;;;;;;3.98;2.35;;;;;;;-1.53;100.00;99264.30;1704350;82;21587;-73
2022/04/18 04:01:40;;;;;;;5.58;2.33;;;;;;;-1.46;100.00;99264.95;1736639;81;21015;-73
2022/04/18 04:04:09;;;;;;;6.28;2.70;;;;;;;-1.39;100.00;99262.92;1730263;81;21649;-70
2022/04/18 04:06:37;;;;;;;5.00;2.65;;;;;;;-1.31;100.00;99259.53;1725687;80;20944;-69
2022/04/18 04:09:08;;;;;;;5.83;2.98;;;;;;;-1.28;100.00;99256.34;1710177;82;21526;-70
2022/04/18 04:11:37;;;;;;;4.58;2.47;;;;;;;-1.24;100.00;99248.88;1700207;81;20975;-70
2022/04/18 04:14:10;;;;;;;4.72;2.45;;;;;;;-1.17;100.00;99246.02;1697462;82;20983;-69
2022/04/18 04:16:42;;;;;;;6.80;2.58;;;;;;;-1.13;100.00;99245.78;1728505;81;21408;-72
2022/04/18 04:19:15;;;;;;;6.03;3.13;;;;;;;-1.10;100.00;99241.25;1733775;81;20908;-72
2022/04/18 04:21:46;;;;;;;6.20;2.98;;;;;;;-1.07;100.00;99236.71;1734393;81;20940;-71
2022/04/18 04:24:13;;;;;;;4.05;2.65;;;;;;;-1.04;100.00;99230.83;1709679;82;21055;-73
2022/04/18 04:26:45;;;;;;;6.40;2.80;;;;;;;-1.04;100.00;99226.25;1705584;83;21043;-75
2022/04/18 04:29:15;;;;;;;7.05;3.05;;;;;;;-0.99;100.00;99221.47;1694057;83;20905;-71
2022/04/18 04:31:59;;;;;;;5.22;2.70;;;;;;;-0.95;100.00;99224.48;1688919;83;20988;-74
2022/04/18 04:34:30;;;;;;;9.35;3.12;;;;;;;-0.93;100.00;99225.05;1660441;83;21447;-72
2022/04/18 04:37:10;;;;;;;7.65;4.00;;;;;;;-0.84;100.00;99228.95;1694491;84;21042;-72
2022/04/18 04:39:45;;;;;;;6.22;3.33;;;;;;;-0.78;100.00;99227.42;1627319;86;21456;-72
2022/04/18 04:42:24;;;;;;;6.33;3.33;;;;;;;-0.81;100.00;99227.92;1696261;83;20937;-73
2022/04/18 04:44:55;;;;;;;7.45;3.55;;;;;;;-0.79;100.00;99221.75;1728589;82;21018;-72
2022/04/18 04:47:25;;;;;;;6.80;3.40;;;;;;;-0.76;100.00;99220.44;1702254;82;20977;-71
2022/04/18 04:50:00;;;;;;;10.13;3.40;;;;;;;-0.75;100.00;99213.45;1730506;82;21492;-70
2022/04/18 04:52:29;;;;;;;7.67;3.30;;;;;;;-0.70;99.18;99212.17;1722921;81;21309;-68
2022/04/18 04:55:03;;;;;;;6.67;3.20;;;;;;;-0.69;98.80;99214.33;1731597;80;20893;-71
2022/04/18 04:57:44;;;;;;;4.72;2.90;;;;;;;-0.70;98.44;99217.56;1730127;81;20934;-71
2022/04/18 05:00:29;;;;;;;7.58;3.17;;;;;;;-0.72;97.23;99214.83;1734209;81;20979;-72
2022/04/18 05:03:04;;;;;;;6.97;3.65;;;;;;;-0.81;96.71;99217.14;1668049;82;21102;-71
2022/04/18 05:05:39;;;;;;;5.75;2.45;;;;;;;-0.82;97.11;99217.39;1740089;81;21200;-71
2022/04/18 05:08:09;;;;;;;5.50;3.25;;;;;;;-0.77;97.45;99215.58;1726576;82;21555;-71
2022/04/18 05:10:38;;;;;;;4.45;2.80;;;;;;;-0.71;97.24;99214.58;1728304;82;20977;-72
2022/04/18 05:13:15;;;;;;;8.80;4.60;;;;;;;-0.64;97.39;99206.84;1699090;82;21003;-72
2022/04/18 05:15:46;;;;;;;8.08;3.83;;;;;;;-0.56;97.23;99206.38;1716890;83;21050;-72
2022/04/18 05:18:20;;;;;;;11.25;6.30;;;;;;;-0.52;96.92;99208.84;1691849;82;20885;-70
2022/04/18 05:20:52;;;;;;;14.85;7.03;;;;;;;-0.47;96.68;99211.60;1719412;81;21010;-74
2022/04/18 05:23:22;;;;;;;11.68;6.78;;;;;;;-0.44;96.70;99207.05;1740488;81;21067;-70
2022/04/18 05:26:00;;;;;;;12.88;6.45;;;;;;;-0.37;96.82;99206.33;1723369;82;20984;-82
2022/04/18 05:28:29;;;;;;;10.45;5.15;;;;;;;-0.30;96.61;99205.59;1730416;82;21010;-84
2022/04/18 05:30:59;;;;;;;8.93;5.45;;;;;;;-0.26;95.96;99212.12;1704845;82;20957;-88
2022/04/18 05:33:32;;;;;;;9.88;4.78;;;;;;;-0.25;95.66;99200.27;1740789;81;20991;-81
2022/04/18 05:36:11;;;;;;;10.55;4.92;;;;;;;-0.19;95.92;99207.87;1707988;83;21051;-82
2022/04/18 05:38:46;;;;;;;8.03;4.00;;;;;;;-0.16;95.63;99210.06;1723651;82;20984;-72
2022/04/18 05:41:21;;;;;;;6.00;3.75;;;;;;;-0.15;95.28;99196.86;1730490;81;21042;-73
2022/04/18 05:43:52;;;;;;;5.50;3.12;;;;;;;-0.13;95.42;99192.84;1744077;82;21875;-73
2022/04/18 05:46:29;;;;;;;5.25;2.80;;;;;;;-0.06;95.72;99192.09;1741414;81;20936;-72
2022/04/18 05:49:01;;;;;;;5.67;3.10;;;;;;;0.06;95.54;99191.09;1729676;81;21478;-74
2022/04/18 05:51:32;;;;;;;;;;;;;;;0.10;95.24;99182.23;1730157;82;20932;-77
2022/04/18 05:54:03;;;;;;;8.83;4.58;;;;;;;0.22;95.53;99190.17;1712497;83;20127;-77
2022/04/18 05:56:33;;;;;;;8.18;3.75;;;;;;;0.29;95.12;99190.77;1727426;81;21077;-69
2022/04/18 05:59:06;;;;;;;5.78;3.42;;;;;;;0.40;95.40;99188.44;1722216;81;21072;-68
2022/04/18 06:01:37;;;;;;;6.37;3.35;;;;;;;0.52;95.00;99184.20;1737701;82;21526;-68
2022/04/18 06:04:14;;;;;;;4.85;2.77;;;;;;;0.57;93.67;99186.41;1726887;81;21440;-68
2022/04/18 06:06:43;;;;;;;5.80;2.75;;;;;;;0.57;93.77;99182.36;1701784;83;21035;-67
2022/04/18 06:09:19;;;;;;;4.53;3.10;;;;;;;0.61;93.62;99183.44;1718397;82;20947;-68
2022/04/18 06:11:51;;;;;;;6.30;2.87;;;;;;;0.69;93.83;99185.37;1725438;82;20906;-69
2022/04/18 06:14:27;;;;;;;6.58;4.20;;;;;;;0.76;93.64;99185.97;1730772;82;21578;-71
2022/04/18 06:16:59;;;;;;;6.97;4.03;;;;;;;0.79;93.20;99193.55;1727289;81;20988;-69
2022/04/18 06:19:31;;;;;;;6.08;3.40;;;;;;;0.81;92.88;99188.70;1731173;82;21392;-69
2022/04/18 06:22:06;;;;;;;8.38;3.65;;;;;;;0.80;92.47;99193.30;1741238;81;21866;-69
2022/04/18 06:24:44;;;;;;;6.67;3.37;;;;;;;0.78;92.48;99187.34;1727526;81;20999;-69
2022/04/18 06:27:19;;;;;;;6.90;3.80;;;;;;;0.85;92.51;99191.16;1706930;82;20892;-76
2022/04/18 06:29:54;;;;;;;6.87;3.12;;;;;;;0.89;92.75;99189.56;1741572;81;20957;-70
2022/04/18 06:32:25;;;;;;;5.03;3.17;;;;;;;0.97;92.90;99187.19;1711769;82;20883;-69
2022/04/18 06:35:02;;;;;;;5.12;3.22;;;;;;;1.07;92.54;99186.43;1718428;81;21175;-71
2022/04/18 06:37:40;;;;;;;10.32;3.30;;;;;;;1.20;92.53;99187.82;1716947;81;21524;-69
2022/04/18 06:40:13;;;;;;;6.78;3.62;;;;;;;1.30;92.08;99187.87;1681627;82;20874;-70
2022/04/18 06:42:47;;;;;;;8.20;3.42;;;;;;;1.40;91.24;99189.80;1726853;81;20998;-70
2022/04/18 06:45:15;;;;;;;5.85;3.55;;;;;;;1.35;89.50;99191.13;1707822;81;21030;-69
2022/04/18 06:47:45;;;;;;;7.87;5.05;;;;;;;1.33;90.40;99186.80;1728014;81;21201;-70
2022/04/18 06:50:33;;;;;;;7.05;4.50;;;;;;;1.42;90.38;99191.70;1756578;80;21047;-81
2022/04/18 06:53:03;;;;;;;9.58;4.78;;;;;;;1.48;89.75;99186.59;1750218;80;20928;-72
2022/04/18 06:58:48;;;;;;;5.80;2.90;;;;;;;1.50;89.35;99187.95;1751022;81;20943;-74
2022/04/18 07:01:16;;;;;;;5.08;2.72;;;;;;;1.60;89.78;99185.83;1729477;80;20868;-75
2022/04/18 07:03:43;;;;;;;8.03;3.37;;;;;;;1.76;89.55;99186.66;1727249;81;21015;-80
2022/04/18 07:06:18;;;;;;;5.78;3.60;;;;;;;1.89;88.83;99174.78;1755460;80;21478;-74
2022/04/18 07:08:47;;;;;;;5.85;3.65;;;;;;;2.02;88.66;99174.80;1748723;80;21003;-77
2022/04/18 07:11:37;;;;;;;6.08;3.65;;;;;;;2.13;88.09;99175.09;1754806;80;21082;-79
2022/04/18 07:14:05;;;;;;;4.70;2.75;;;;;;;2.19;86.96;99183.48;1748234;81;21286;-73
2022/04/18 07:16:39;;;;;;;4.45;2.90;;;;;;;2.17;85.34;99180.78;1748791;80;20978;-72
2022/04/18 07:19:07;;;;;;;5.37;3.20;;;;;;;2.13;85.66;99181.05;1749241;81;21026;-72
2022/04/18 07:21:36;;;;;;;4.80;3.10;;;;;;;2.19;85.31;99175.91;1755832;81;20952;-70
2022/04/18 07:24:13;;;;;;;5.00;2.80;;;;;;;2.28;85.54;99179.16;1753870;81;20996;-71
2022/04/18 07:26:42;;;;;;;4.03;3.00;;;;;;;2.44;85.10;99180.49;1728401;81;21589;-71
2022/04/18 07:29:15;;;;;;;4.83;3.27;;;;;;;2.58;84.69;99173.45;1760419;81;20841;-73
2022/04/18 07:31:43;;;;;;;5.15;3.30;;;;;;;2.60;82.78;99176.16;1757442;81;20982;-68
2022/04/18 07:34:14;;;;;;;5.92;3.62;;;;;;;2.55;82.22;99173.45;1716350;82;20978;-72
2022/04/18 07:36:45;;;;;;;7.30;4.15;;;;;;;2.54;82.13;99167.75;1734227;81;21016;-72
2022/04/18 07:39:16;;;;;;;9.05;4.70;;;;;;;2.58;82.10;99166.67;1730129;82;21271;-67
2022/04/18 07:41:47;;;;;;;11.53;5.78;;;;;;;2.59;82.24;99168.30;1719612;82;20917;-68
2022/04/18 07:44:28;;;;;;;9.33;4.22;;;;;;;2.62;81.60;99163.69;1730930;81;20902;-68
2022/04/18 07:47:04;;;;;;;5.30;3.30;;;;;;;2.76;81.54;99165.30;1721420;82;20915;-68
2022/04/18 07:49:38;;;;;;;3.30;2.20;;;;;;;2.87;78.04;99160.13;1712338;82;20936;-69
2022/04/18 07:52:09;;;;;;;3.50;2.27;;;;;;;2.92;78.01;99162.25;1721104;82;21174;-68
2022/04/18 07:54:38;;;;;;;3.95;2.47;;;;;;;3.06;76.46;99148.92;1719242;81;20910;-72
2022/04/18 07:57:08;;;;;;;3.72;2.80;;;;;;;3.22;76.56;99153.77;1722811;82;21537;-75
2022/04/18 07:59:46;;;;;;;4.30;2.33;;;;;;;3.36;75.92;99149.91;1728985;81;20969;-71
2022/04/18 08:02:23;;;;;;;5.25;3.40;;;;;;;3.51;76.92;99152.53;1699520;83;21683;-86
2022/04/18 08:04:59;;;;;;;4.47;3.42;;;;;;;3.72;75.55;99151.33;1716432;82;21263;-75
2022/04/18 08:07:31;;;;;;;;;;;;;;;3.81;73.58;99147.48;1711324;82;21057;-78
2022/04/18 08:10:09;;;;;;;5.37;3.60;;;;;;;3.77;72.52;99147.23;1711692;81;20106;-75
2022/04/18 08:12:39;;;;;;;3.00;2.15;;;;;;;3.54;73.98;99141.92;1716433;82;21049;-72
2022/04/18 08:15:31;;;;;;;4.00;2.37;;;;;;;3.54;73.98;99141.92;1718484;82;20956;-68
2022/04/18 08:18:01;;;;;;;4.30;2.87;;;;;;;3.67;74.05;99135.07;1730638;83;21503;-70
2022/04/18 08:20:46;;;;;;;4.22;2.45;;;;;;;3.71;72.90;99138.04;1723497;82;21461;-76
2022/04/18 08:23:16;;;;;;;4.25;2.20;;;;;;;3.68;72.31;99132.63;1735033;82;21039;-70
2022/04/18 08:26:05;;;;;;;5.08;2.42;;;;;;;3.67;72.16;99135.07;1717826;81;21452;-69
2022/04/18 08:28:40;;;;;;;3.30;2.37;;;;;;;3.65;71.63;99142.14;1746340;81;21169;-74
2022/04/18 08:31:12;;;;;;;3.08;2.35;;;;;;;3.62;71.55;99133.74;1697741;81;21191;-71
2022/04/18 08:33:41;;;;;;;3.85;2.33;;;;;;;3.58;71.16;99132.67;1736047;81;20948;-76
2022/04/18 08:36:19;;;;;;;3.72;2.52;;;;;;;3.54;71.48;99139.75;1699305;81;21557;-65
2022/04/18 08:38:52;;;;;;;3.50;2.20;;;;;;;3.56;71.96;99134.86;1711914;82;20990;-67
2022/04/18 08:41:36;;;;;;;2.22;1.87;;;;;;;3.60;71.92;99129.14;1720796;81;20919;-66
2022/04/18 08:44:05;;;;;;;3.20;2.10;;;;;;;3.67;71.13;99129.64;1737698;81;21229;-68
2022/04/18 08:46:37;;;;;;;6.92;2.40;;;;;;;3.84;70.01;99126.55;1745105;81;21015;-68
2022/04/18 08:54:51;;;;;;;3.33;2.00;;;;;;;4.36;67.34;99121.78;1758263;80;21014;-73
2022/04/18 08:57:20;;;;;;;2.98;2.12;;;;;;;4.57;67.50;99119.70;1703048;82;21171;-77
2022/04/18 08:59:51;;;;;;;4.65;2.70;;;;;;;4.74;67.67;99114.61;1709034;82;21086;-66
2022/04/18 09:02:23;;;;;;;6.12;2.10;;;;;;;4.93;67.80;99116.05;1724897;82;20952;-68
2022/04/18 09:05:14;;;;;;;3.33;2.08;;;;;;;5.02;63.59;99106.14;1718220;82;21514;-65
2022/04/18 09:07:48;;;;;;;2.60;1.85;;;;;;;4.97;63.67;99106.20;1733685;82;21455;-65
2022/04/18 09:10:24;;;;;;;3.25;2.10;;;;;;;4.95;64.49;99111.13;1677938;82;21753;-65
2022/04/18 09:12:57;;;;;;;4.53;2.50;;;;;;;5.01;65.29;99100.45;1725694;81;21046;-64
2022/04/18 09:15:41;;;;;;;4.47;2.35;;;;;;;5.21;64.98;99101.53;1700881;83;21057;-65
2022/04/18 09:18:21;;;;;;;2.60;1.60;;;;;;;5.40;65.01;99094.77;1699869;83;20988;-65
2022/04/18 09:20:56;;;;;;;4.45;2.15;;;;;;;5.50;61.80;99099.27;1687511;83;20992;-66
2022/04/18 09:23:31;;;;;;;2.05;1.40;;;;;;;5.41;62.25;99096.94;1670954;85;21084;-71
2022/04/18 09:26:22;;;;;;;2.27;1.67;;;;;;;5.41;62.25;99096.94;1658021;84;20906;-67
2022/04/18 09:28:56;;;;;;;2.30;1.87;;;;;;;5.44;61.37;99093.08;1665119;85;21054;-66
2022/04/18 09:31:32;;;;;;;2.50;2.05;;;;;;;5.44;61.37;99093.08;1672237;83;21458;-66
2022/04/18 09:34:02;;;;;;;2.92;1.62;;;;;;;5.45;59.98;99089.25;1652893;83;20900;-66
2022/04/18 09:36:38;;;;;;;2.45;1.77;;;;;;;5.37;57.76;99087.73;1751486;80;21888;-67
2022/04/18 09:39:05;;;;;;;2.33;1.55;;;;;;;5.18;58.22;99079.56;1731845;81;25375;-73
2022/04/18 09:41:43;;;;;;;2.42;1.32;;;;;;;5.03;58.76;99080.56;1740442;81;20900;-67
2022/04/18 09:44:26;;;;;;;4.25;1.87;;;;;;;4.91;58.06;99077.44;1757028;80;20956;-70
2022/04/18 09:46:57;;;;;;;3.20;1.98;;;;;;;4.74;58.05;99086.60;1754766;81;20970;-69
2022/04/18 09:49:43;;;;;;;6.08;1.50;;;;;;;4.55;58.88;99086.01;1758873;81;21169;-70
2022/04/18 09:52:16;;;;;;;1.55;0.90;;;;;;;4.50;59.19;99083.34;1759637;81;20868;-64
2022/04/18 09:54:53;;;;;;;1.77;1.17;;;;;;;4.60;59.32;99083.23;1735321;80;23110;-66
2022/04/18 09:57:26;;;;;;;1.95;1.37;;;;;;;4.75;57.60;99079.52;1754628;81;20948;-66
2022/04/18 09:59:56;;;;;;;4.75;2.10;;;;;;;4.75;57.60;99079.52;1755375;81;20949;-66
2022/04/18 10:02:35;;;;;;;2.22;1.45;;;;;;;4.75;57.36;99078.70;1755769;81;20919;-64
2022/04/18 10:04:55;;;;;;;2.30;1.55;;;;;;;4.75;57.58;99068.64;1754644;80;21022;-62
2022/04/18 10:07:29;;;;;;;2.33;1.42;;;;;;;4.82;58.56;99065.03;1757898;81;21576;-62
2022/04/18 10:09:57;;;;;;;2.62;1.75;;;;;;;4.82;58.56;99065.03;1748634;81;21047;-62
2022/04/18 10:12:33;;;;;;;3.33;1.70;;;;;;;4.90;58.53;99074.46;1738169;81;21020;-63
2022/04/18 10:15:02;;;;;;;3.62;1.80;;;;;;;4.90;57.12;99079.90;1730988;81;20868;-62
2022/04/18 10:17:33;;;;;;;2.27;1.82;;;;;;;4.79;57.68;99082.47;1721651;81;21452;-62
2022/04/18 10:20:43;;;;;;;1.50;1.20;;;;;;;4.69;58.19;99075.23;1723393;80;20896;-62
2022/04/18 10:24:09;;;;;;;2.90;1.77;;;;;;;4.57;57.44;99071.58;1665818;84;20877;-62
2022/04/18 10:27:15;;;;;;;2.02;1.57;;;;;;;4.57;57.44;99071.58;1728834;82;20947;-63
2022/04/18 10:29:49;;;;;;;5.03;2.47;;;;;;;4.52;58.40;99072.98;1742590;81;21176;-62
2022/04/18 10:32:24;;;;;;;1.70;1.40;;;;;;;4.51;58.10;99070.01;1729905;81;20904;-63
2022/04/18 10:35:01;;;;;;;2.67;1.42;;;;;;;4.48;59.20;99069.22;1705598;80;21048;-62
2022/04/18 10:37:31;;;;;;;2.55;1.45;;;;;;;4.48;58.84;99071.94;1731633;81;20978;-63
2022/04/18 10:40:07;;;;;;;2.58;1.67;;;;;;;4.59;58.95;99063.95;1718564;82;21165;-63
2022/04/18 10:42:44;;;;;;;3.37;2.42;;;;;;;4.59;58.95;99063.95;1704473;82;20883;-68
2022/04/18 10:45:14;;;;;;;3.83;1.90;;;;;;;4.52;57.83;99074.34;1710946;82;20924;-69
2022/04/18 10:48:04;;;;;;;;;;;;;;;4.46;59.55;99071.42;1704138;82;20900;-73
2022/04/18 10:50:47;;;;;;;3.90;1.95;;;;;;;4.45;59.15;99077.95;1729679;82;20130;-70
2022/04/18 10:53:29;;;;;;;2.33;1.60;;;;;;;4.38;59.94;99073.39;1738916;81;21520;-65
2022/04/18 10:56:05;;;;;;;2.45;1.75;;;;;;;4.37;59.19;99068.25;1738708;81;21112;-66
2022/04/18 10:58:36;;;;;;;4.40;1.98;;;;;;;4.30;59.18;99072.66;1730963;82;20855;-66
2022/04/18 11:01:10;;;;;;;4.40;2.22;;;;;;;4.30;59.18;99072.66;1732317;81;21007;-66
2022/04/18 11:03:47;;;;;;;5.03;2.60;;;;;;;4.29;59.84;99074.56;1723597;81;20997;-63
2022/04/18 11:06:22;;;;;;;4.20;2.50;;;;;;;4.27;59.57;99081.38;1732779;81;21098;-62
2022/04/18 11:09:07;;;;;;;3.52;2.05;;;;;;;4.19;59.44;99076.02;1721988;82;21267;-64
2022/04/18 11:12:00;;;;;;;4.28;2.30;;;;;;;4.11;59.45;99071.19;1734728;81;20914;-64
2022/04/18 11:14:44;;;;;;;5.37;2.37;;;;;;;4.10;60.46;99066.85;1720199;82;20984;-65
2022/04/18 11:17:31;;;;;;;4.42;2.67;;;;;;;4.15;60.41;99064.09;1716458;82;21530;-65
2022/04/18 11:20:37;;;;;;;8.38;2.95;;;;;;;4.23;60.35;99069.46;1720791;82;20938;-64
2022/04/18 11:23:33;;;;;;;4.75;2.72;;;;;;;4.46;59.91;99063.27;1724864;82;21142;-66
2022/04/18 11:26:07;;;;;;;2.50;1.95;;;;;;;4.46;59.91;99063.27;1736936;81;20893;-64
2022/04/18 11:28:51;;;;;;;3.40;2.02;;;;;;;4.47;59.92;99066.24;1691818;82;20998;-63
2022/04/18 11:31:30;;;;;;;3.40;2.62;;;;;;;4.42;59.91;99066.30;1704152;82;20941;-64
2022/04/18 11:34:00;;;;;;;7.80;2.20;;;;;;;4.35;60.48;99069.08;1708481;81;21750;-64
2022/04/18 11:36:27;;;;;;;3.30;1.90;;;;;;;4.40;60.75;99068.48;1713681;82;21169;-72
2022/04/18 11:39:06;;;;;;;7.62;3.00;;;;;;;4.40;60.75;99068.48;1732416;81;20982;-72
2022/04/18 11:41:35;;;;;;;3.95;2.20;;;;;;;4.38;60.23;99065.24;1716958;82;21142;-76
2022/04/18 11:44:02;;;;;;;3.80;2.10;;;;;;;4.32;59.98;99065.03;1744759;81;20908;-77
2022/04/18 11:46:30;;;;;;;2.85;2.08;;;;;;;4.17;59.86;99051.58;1737122;81;20932;-75
2022/04/18 11:48:57;;;;;;;3.90;2.42;;;;;;;4.17;59.86;99051.58;1736653;80;21116;-76
2022/04/18 11:51:43;;;;;;;4.97;1.98;;;;;;;4.03;60.35;99048.74;1726956;82;21067;-65
2022/04/18 11:54:14;;;;;;;3.12;1.70;;;;;;;4.07;60.95;99049.77;1718802;82;21401;-65
2022/04/18 11:56:44;;;;;;;5.95;2.00;;;;;;;4.07;60.95;99049.77;1673716;84;20960;-65
2022/04/18 11:59:14;;;;;;;2.62;1.85;;;;;;;4.19;60.88;99048.84;1675257;84;21008;-63
2022/04/18 12:07:23;;;;;;;3.45;2.30;;;;;;;4.64;61.58;99044.83;1679618;85;21500;-63
2022/04/18 12:09:58;;;;;;;4.05;2.37;;;;;;;4.81;60.67;99040.29;1682472;84;20972;-64
2022/04/18 12:12:31;;;;;;;3.45;2.30;;;;;;;4.89;59.16;99036.93;1673084;84;21076;-62
2022/04/18 12:15:11;;;;;;;3.62;2.30;;;;;;;5.03;59.11;99046.55;1648107;85;20913;-63
2022/04/18 12:17:42;;;;;;;2.25;1.77;;;;;;;5.03;59.11;99046.55;1679578;84;21059;-62
2022/04/18 12:20:32;;;;;;;5.70;2.00;;;;;;;5.07;58.33;99046.23;1679986;85;20928;-63
2022/04/18 12:23:06;;;;;;;3.25;1.98;;;;;;;5.06;58.41;99047.34;1729574;82;20942;-63
2022/04/18 12:25:37;;;;;;;2.15;1.50;;;;;;;5.04;56.38;99046.81;1741366;82;20976;-64
2022/04/18 12:28:07;;;;;;;3.45;2.05;;;;;;;4.88;56.49;99044.83;1642282;83;20919;-64
2022/04/18 12:30:33;;;;;;;2.35;1.82;;;;;;;4.84;57.37;99045.15;1724908;82;21553;-65
2022/04/18 12:33:23;;;;;;;3.33;1.92;;;;;;;4.87;57.50;99044.57;1736749;81;20978;-66
2022/04/18 12:35:54;;;;;;;4.33;1.95;;;;;;;4.92;57.41;99053.22;1734924;82;20903;-65